sensor_id;sensor_type;location;lat;lon;timestamp;pressure;altitude;pressure_sealevel;temperature;humidity
52777;BME280;38656;54.260;20.822;2023-05-03T00:01:24;101788.47;;;9.28;78.44
52777;BME280;38656;54.260;20.822;2023-05-03T00:03:51;101790.41;;;8.91;82.55
52777;BME280;38656;54.260;20.822;2023-05-03T00:06:18;101793.50;;;9.33;80.76
52777;BME280;38656;54.260;20.822;2023-05-03T00:08:44;101790.03;;;9.48;77.94
52777;BME280;38656;54.260;20.822;2023-05-03T00:11:10;101787.84;;;9.56;77.66
52777;BME280;38656;54.260;20.822;2023-05-03T00:13:37;101793.00;;;10.54;73.50
52777;BME280;38656;54.260;20.822;2023-05-03T00:16:03;101794.16;;;8.70;83.03
52777;BME280;38656;54.260;20.822;2023-05-03T00:18:30;101791.03;;;9.30;88.90
52777;BME280;38656;54.260;20.822;2023-05-03T00:20:58;101794.22;;;8.50;93.10
52777;BME280;38656;54.260;20.822;2023-05-03T00:23:24;101794.50;;;8.44;97.87
52777;BME280;38656;54.260;20.822;2023-05-03T00:25:54;101796.19;;;9.49;89.28
52777;BME280;38656;54.260;20.822;2023-05-03T00:28:21;101799.53;;;9.68;85.62
52777;BME280;38656;54.260;20.822;2023-05-03T00:30:48;101794.75;;;9.59;83.41
52777;BME280;38656;54.260;20.822;2023-05-03T00:33:15;101783.13;;;8.96;86.28
52777;BME280;38656;54.260;20.822;2023-05-03T00:35:42;101792.75;;;8.97;90.15
52777;BME280;38656;54.260;20.822;2023-05-03T00:38:08;101791.97;;;9.29;87.50
52777;BME280;38656;54.260;20.822;2023-05-03T00:40:34;101800.25;;;9.05;88.75
52777;BME280;38656;54.260;20.822;2023-05-03T00:43:01;101795.53;;;7.67;97.08
52777;BME280;38656;54.260;20.822;2023-05-03T00:45:32;101803.13;;;7.92;100.00
52777;BME280;38656;54.260;20.822;2023-05-03T00:47:59;101795.78;;;9.23;93.44
52777;BME280;38656;54.260;20.822;2023-05-03T00:50:26;101799.16;;;9.59;87.20
52777;BME280;38656;54.260;20.822;2023-05-03T00:52:53;101794.91;;;10.20;83.91
52777;BME280;38656;54.260;20.822;2023-05-03T00:55:19;101799.78;;;10.58;77.42
52777;BME280;38656;54.260;20.822;2023-05-03T00:57:46;101804.75;;;10.93;74.79
52777;BME280;38656;54.260;20.822;2023-05-03T01:00:13;101799.19;;;10.83;73.88
52777;BME280;38656;54.260;20.822;2023-05-03T01:02:39;101797.56;;;10.66;73.43
52777;BME280;38656;54.260;20.822;2023-05-03T01:05:06;101794.84;;;10.68;72.66
52777;BME280;38656;54.260;20.822;2023-05-03T01:13:29;101798.63;;;10.48;71.71
52777;BME280;38656;54.260;20.822;2023-05-03T01:19:12;101807.19;;;10.21;71.56
52777;BME280;38656;54.260;20.822;2023-05-03T01:21:42;101800.56;;;8.99;76.54
52777;BME280;38656;54.260;20.822;2023-05-03T01:24:23;101797.63;;;8.88;77.21
52777;BME280;38656;54.260;20.822;2023-05-03T01:26:51;101801.28;;;8.67;77.22
52777;BME280;38656;54.260;20.822;2023-05-03T01:29:17;101799.13;;;8.58;77.14
52777;BME280;38656;54.260;20.822;2023-05-03T01:31:45;101792.75;;;8.62;78.33
52777;BME280;38656;54.260;20.822;2023-05-03T01:34:30;101794.78;;;8.57;79.02
52777;BME280;38656;54.260;20.822;2023-05-03T01:36:59;101794.97;;;8.70;77.72
52777;BME280;38656;54.260;20.822;2023-05-03T01:42:05;101803.41;;;8.42;78.68
52777;BME280;38656;54.260;20.822;2023-05-03T01:44:32;101797.78;;;8.49;79.74
52777;BME280;38656;54.260;20.822;2023-05-03T01:46:58;101808.31;;;7.75;83.24
52777;BME280;38656;54.260;20.822;2023-05-03T01:49:24;101802.19;;;8.49;80.79
52777;BME280;38656;54.260;20.822;2023-05-03T01:51:51;101806.28;;;8.55;80.24
52777;BME280;38656;54.260;20.822;2023-05-03T01:54:17;101801.28;;;8.67;79.95
52777;BME280;38656;54.260;20.822;2023-05-03T01:56:43;101809.16;;;8.50;79.31
52777;BME280;38656;54.260;20.822;2023-05-03T01:59:10;101803.75;;;8.53;78.71
52777;BME280;38656;54.260;20.822;2023-05-03T02:01:36;101792.06;;;8.59;77.63
52777;BME280;38656;54.260;20.822;2023-05-03T02:04:02;101804.31;;;8.60;78.91
52777;BME280;38656;54.260;20.822;2023-05-03T02:06:28;101805.03;;;8.44;80.58
52777;BME280;38656;54.260;20.822;2023-05-03T02:08:54;101803.91;;;8.50;79.83
52777;BME280;38656;54.260;20.822;2023-05-03T02:11:21;101803.06;;;8.30;82.45
52777;BME280;38656;54.260;20.822;2023-05-03T02:13:50;101811.63;;;8.53;80.77
52777;BME280;38656;54.260;20.822;2023-05-03T02:16:19;101811.66;;;7.97;84.94
52777;BME280;38656;54.260;20.822;2023-05-03T02:18:45;101813.25;;;7.64;89.23
52777;BME280;38656;54.260;20.822;2023-05-03T02:21:12;101809.66;;;6.85;97.31
52777;BME280;38656;54.260;20.822;2023-05-03T02:23:38;101806.81;;;7.88;91.48
52777;BME280;38656;54.260;20.822;2023-05-03T02:26:05;101810.56;;;8.21;86.69
52777;BME280;38656;54.260;20.822;2023-05-03T02:28:33;101809.75;;;8.38;85.71
52777;BME280;38656;54.260;20.822;2023-05-03T02:30:59;101811.34;;;8.04;87.57
52777;BME280;38656;54.260;20.822;2023-05-03T02:33:25;101815.94;;;6.61;100.00
52777;BME280;38656;54.260;20.822;2023-05-03T02:35:51;101801.72;;;7.47;98.17
52777;BME280;38656;54.260;20.822;2023-05-03T02:38:17;101812.50;;;6.81;100.00
52777;BME280;38656;54.260;20.822;2023-05-03T02:40:44;101806.84;;;7.50;99.59
52777;BME280;38656;54.260;20.822;2023-05-03T02:43:10;101812.91;;;6.05;100.00
52777;BME280;38656;54.260;20.822;2023-05-03T02:45:36;101826.84;;;6.07;100.00
52777;BME280;38656;54.260;20.822;2023-05-03T02:48:02;101830.38;;;6.50;100.00
52777;BME280;38656;54.260;20.822;2023-05-03T02:50:29;101826.72;;;5.63;100.00
52777;BME280;38656;54.260;20.822;2023-05-03T02:52:55;101827.84;;;5.79;100.00
52777;BME280;38656;54.260;20.822;2023-05-03T02:55:22;101823.59;;;6.00;100.00
52777;BME280;38656;54.260;20.822;2023-05-03T02:57:48;101826.09;;;6.26;100.00
52777;BME280;38656;54.260;20.822;2023-05-03T03:00:14;101830.72;;;6.63;100.00
52777;BME280;38656;54.260;20.822;2023-05-03T03:02:41;101835.38;;;6.57;100.00
52777;BME280;38656;54.260;20.822;2023-05-03T03:05:08;101830.91;;;7.60;100.00
52777;BME280;38656;54.260;20.822;2023-05-03T03:07:36;101837.50;;;8.07;100.00
52777;BME280;38656;54.260;20.822;2023-05-03T03:10:02;101833.53;;;7.20;100.00
52777;BME280;38656;54.260;20.822;2023-05-03T03:12:29;101829.44;;;7.92;100.00
52777;BME280;38656;54.260;20.822;2023-05-03T03:14:55;101839.09;;;8.11;100.00
52777;BME280;38656;54.260;20.822;2023-05-03T03:17:21;101842.63;;;6.93;100.00
52777;BME280;38656;54.260;20.822;2023-05-03T03:19:47;101843.22;;;7.59;100.00
52777;BME280;38656;54.260;20.822;2023-05-03T03:22:14;101849.00;;;8.23;100.00
52777;BME280;38656;54.260;20.822;2023-05-03T03:24:40;101845.47;;;8.24;100.00
52777;BME280;38656;54.260;20.822;2023-05-03T03:27:06;101842.16;;;8.38;96.72
52777;BME280;38656;54.260;20.822;2023-05-03T03:29:32;101851.31;;;9.02;94.39
52777;BME280;38656;54.260;20.822;2023-05-03T03:31:58;101843.94;;;9.76;90.42
52777;BME280;38656;54.260;20.822;2023-05-03T03:34:25;101854.09;;;8.82;92.02
52777;BME280;38656;54.260;20.822;2023-05-03T03:36:51;101853.94;;;8.67;97.55
52777;BME280;38656;54.260;20.822;2023-05-03T03:39:17;101853.31;;;8.62;100.00
52777;BME280;38656;54.260;20.822;2023-05-03T03:41:43;101849.59;;;9.01;97.52
52777;BME280;38656;54.260;20.822;2023-05-03T03:44:10;101852.88;;;8.72;95.30
52777;BME280;38656;54.260;20.822;2023-05-03T03:46:36;101855.31;;;8.57;97.56
52777;BME280;38656;54.260;20.822;2023-05-03T03:49:02;101848.88;;;8.45;100.00
52777;BME280;38656;54.260;20.822;2023-05-03T03:51:28;101853.31;;;8.80;100.00
52777;BME280;38656;54.260;20.822;2023-05-03T03:53:54;101852.88;;;9.07;100.00
52777;BME280;38656;54.260;20.822;2023-05-03T03:56:21;101859.16;;;9.37;100.00
52777;BME280;38656;54.260;20.822;2023-05-03T03:58:48;101873.50;;;8.25;100.00
52777;BME280;38656;54.260;20.822;2023-05-03T04:01:14;101861.13;;;9.67;99.27
52777;BME280;38656;54.260;20.822;2023-05-03T04:03:43;101864.75;;;8.44;100.00
52777;BME280;38656;54.260;20.822;2023-05-03T04:06:10;101873.97;;;8.33;100.00
52777;BME280;38656;54.260;20.822;2023-05-03T04:08:37;101870.38;;;7.79;100.00
52777;BME280;38656;54.260;20.822;2023-05-03T04:11:03;101872.38;;;8.12;100.00
52777;BME280;38656;54.260;20.822;2023-05-03T04:13:34;101873.78;;;8.92;100.00
52777;BME280;38656;54.260;20.822;2023-05-03T04:16:00;101882.88;;;8.31;100.00
52777;BME280;38656;54.260;20.822;2023-05-03T04:18:26;101878.56;;;9.01;100.00
52777;BME280;38656;54.260;20.822;2023-05-03T04:20:52;101873.59;;;9.30;100.00
52777;BME280;38656;54.260;20.822;2023-05-03T04:23:19;101869.56;;;8.53;100.00
52777;BME280;38656;54.260;20.822;2023-05-03T04:25:45;101887.50;;;8.07;100.00
52777;BME280;38656;54.260;20.822;2023-05-03T04:28:13;101887.28;;;8.30;100.00
52777;BME280;38656;54.260;20.822;2023-05-03T04:30:40;101872.38;;;8.85;100.00
52777;BME280;38656;54.260;20.822;2023-05-03T04:33:08;101879.31;;;7.75;100.00
52777;BME280;38656;54.260;20.822;2023-05-03T04:35:35;101882.59;;;8.18;100.00
52777;BME280;38656;54.260;20.822;2023-05-03T04:38:02;101876.53;;;9.42;100.00
52777;BME280;38656;54.260;20.822;2023-05-03T04:40:28;101877.31;;;9.93;100.00
52777;BME280;38656;54.260;20.822;2023-05-03T04:42:54;101879.88;;;9.79;100.00
52777;BME280;38656;54.260;20.822;2023-05-03T04:45:22;101879.09;;;10.72;97.32
52777;BME280;38656;54.260;20.822;2023-05-03T04:47:49;101877.00;;;10.47;97.90
52777;BME280;38656;54.260;20.822;2023-05-03T04:50:15;101871.72;;;12.78;92.36
52777;BME280;38656;54.260;20.822;2023-05-03T04:52:42;101883.50;;;11.47;98.85
52777;BME280;38656;54.260;20.822;2023-05-03T04:55:08;101881.03;;;11.87;90.83
52777;BME280;38656;54.260;20.822;2023-05-03T04:57:34;101888.69;;;10.89;93.59
52777;BME280;38656;54.260;20.822;2023-05-03T05:00:00;101883.59;;;11.31;97.19
52777;BME280;38656;54.260;20.822;2023-05-03T05:02:27;101886.06;;;10.73;97.10
52777;BME280;38656;54.260;20.822;2023-05-03T05:04:53;101892.09;;;11.36;91.63
52777;BME280;38656;54.260;20.822;2023-05-03T05:07:20;101889.59;;;13.14;87.04
52777;BME280;38656;54.260;20.822;2023-05-03T05:09:46;101886.78;;;11.36;88.92
52777;BME280;38656;54.260;20.822;2023-05-03T05:12:12;101892.84;;;11.81;90.26
52777;BME280;38656;54.260;20.822;2023-05-03T05:14:39;101896.81;;;11.74;96.50
52777;BME280;38656;54.260;20.822;2023-05-03T05:17:05;101895.09;;;11.15;96.33
52777;BME280;38656;54.260;20.822;2023-05-03T05:19:31;101894.13;;;12.32;91.01
52777;BME280;38656;54.260;20.822;2023-05-03T05:21:57;101896.03;;;11.29;91.93
52777;BME280;38656;54.260;20.822;2023-05-03T05:24:24;101895.06;;;12.31;94.43
52777;BME280;38656;54.260;20.822;2023-05-03T05:26:50;101907.78;;;10.48;98.71
52777;BME280;38656;54.260;20.822;2023-05-03T05:29:16;101907.50;;;10.37;100.00
52777;BME280;38656;54.260;20.822;2023-05-03T05:31:42;101901.47;;;12.41;100.00
52777;BME280;38656;54.260;20.822;2023-05-03T05:34:08;101895.72;;;13.02;91.76
52777;BME280;38656;54.260;20.822;2023-05-03T05:36:35;101904.41;;;11.80;93.11
52777;BME280;38656;54.260;20.822;2023-05-03T05:39:01;101905.78;;;12.15;93.20
52777;BME280;38656;54.260;20.822;2023-05-03T05:41:27;101909.59;;;13.58;92.32
52777;BME280;38656;54.260;20.822;2023-05-03T05:43:53;101899.56;;;13.10;86.75
52777;BME280;38656;54.260;20.822;2023-05-03T05:46:19;101903.69;;;12.62;90.38
52777;BME280;38656;54.260;20.822;2023-05-03T05:48:46;101919.53;;;11.93;92.19
52777;BME280;38656;54.260;20.822;2023-05-03T05:51:12;101920.63;;;13.39;90.75
52777;BME280;38656;54.260;20.822;2023-05-03T05:53:38;101907.91;;;13.57;87.17
52777;BME280;38656;54.260;20.822;2023-05-03T05:56:05;101910.59;;;14.07;84.04
52777;BME280;38656;54.260;20.822;2023-05-03T05:58:31;101911.91;;;14.02;85.73
52777;BME280;38656;54.260;20.822;2023-05-03T06:01:00;101917.75;;;13.30;86.04
52777;BME280;38656;54.260;20.822;2023-05-03T06:03:28;101916.03;;;14.43;83.75
52777;BME280;38656;54.260;20.822;2023-05-03T06:05:55;101909.81;;;14.18;82.71
52777;BME280;38656;54.260;20.822;2023-05-03T06:08:21;101913.75;;;15.45;80.91
52777;BME280;38656;54.260;20.822;2023-05-03T06:10:47;101912.22;;;15.99;74.43
52777;BME280;38656;54.260;20.822;2023-05-03T06:13:13;101919.66;;;15.37;72.95
52777;BME280;38656;54.260;20.822;2023-05-03T06:15:40;101919.97;;;14.00;75.86
52777;BME280;38656;54.260;20.822;2023-05-03T06:18:06;101920.94;;;15.20;71.86
52777;BME280;38656;54.260;20.822;2023-05-03T06:20:32;101920.19;;;14.58;68.69
52777;BME280;38656;54.260;20.822;2023-05-03T06:22:58;101916.50;;;14.24;67.68
52777;BME280;38656;54.260;20.822;2023-05-03T06:25:25;101914.31;;;16.39;65.18
52777;BME280;38656;54.260;20.822;2023-05-03T06:27:51;101914.34;;;16.71;60.94
52777;BME280;38656;54.260;20.822;2023-05-03T06:30:17;101931.16;;;14.66;60.35
52777;BME280;38656;54.260;20.822;2023-05-03T06:32:46;101931.47;;;15.80;61.34
52777;BME280;38656;54.260;20.822;2023-05-03T06:35:12;101925.97;;;15.00;65.35
52777;BME280;38656;54.260;20.822;2023-05-03T06:37:39;101930.38;;;16.16;60.79
52777;BME280;38656;54.260;20.822;2023-05-03T06:40:05;101939.72;;;15.99;60.81
52777;BME280;38656;54.260;20.822;2023-05-03T06:42:32;101928.09;;;16.67;60.58
52777;BME280;38656;54.260;20.822;2023-05-03T06:44:58;101930.34;;;15.71;62.77
52777;BME280;38656;54.260;20.822;2023-05-03T06:47:24;101932.63;;;15.53;61.65
52777;BME280;38656;54.260;20.822;2023-05-03T06:49:50;101937.97;;;15.53;59.17
52777;BME280;38656;54.260;20.822;2023-05-03T06:52:16;101929.25;;;16.41;56.40
52777;BME280;38656;54.260;20.822;2023-05-03T06:54:43;101932.91;;;15.72;58.30
52777;BME280;38656;54.260;20.822;2023-05-03T06:57:09;101937.81;;;15.32;57.46
52777;BME280;38656;54.260;20.822;2023-05-03T06:59:35;101936.44;;;15.26;58.77
52777;BME280;38656;54.260;20.822;2023-05-03T07:02:02;101935.69;;;16.71;56.77
52777;BME280;38656;54.260;20.822;2023-05-03T07:04:29;101941.16;;;16.15;56.89
52777;BME280;38656;54.260;20.822;2023-05-03T07:06:55;101936.56;;;17.46;57.29
52777;BME280;38656;54.260;20.822;2023-05-03T07:09:21;101938.72;;;17.52;51.82
52777;BME280;38656;54.260;20.822;2023-05-03T07:11:48;101935.59;;;17.78;50.75
52777;BME280;38656;54.260;20.822;2023-05-03T07:14:15;101939.44;;;16.25;54.71
52777;BME280;38656;54.260;20.822;2023-05-03T07:16:42;101927.88;;;17.54;53.44
52777;BME280;38656;54.260;20.822;2023-05-03T07:19:08;101923.91;;;17.48;54.31
52777;BME280;38656;54.260;20.822;2023-05-03T07:21:34;101922.44;;;17.13;53.68
52777;BME280;38656;54.260;20.822;2023-05-03T07:24:00;101932.13;;;17.14;51.71
52777;BME280;38656;54.260;20.822;2023-05-03T07:26:27;101930.38;;;16.71;53.69
52777;BME280;38656;54.260;20.822;2023-05-03T07:28:53;101923.19;;;18.98;48.79
52777;BME280;38656;54.260;20.822;2023-05-03T07:31:22;101936.56;;;17.46;48.65
52777;BME280;38656;54.260;20.822;2023-05-03T07:33:49;101936.75;;;17.12;49.57
52777;BME280;38656;54.260;20.822;2023-05-03T07:36:16;101932.63;;;18.02;48.32
52777;BME280;38656;54.260;20.822;2023-05-03T07:38:42;101933.91;;;18.98;47.23
52777;BME280;38656;54.260;20.822;2023-05-03T07:41:08;101935.78;;;18.17;46.15
52777;BME280;38656;54.260;20.822;2023-05-03T07:43:35;101939.50;;;18.75;44.29
52777;BME280;38656;54.260;20.822;2023-05-03T07:46:01;101940.78;;;17.07;46.48
52777;BME280;38656;54.260;20.822;2023-05-03T07:48:28;101946.34;;;17.36;48.08
52777;BME280;38656;54.260;20.822;2023-05-03T07:50:54;101937.53;;;18.67;44.02
52777;BME280;38656;54.260;20.822;2023-05-03T07:53:20;101950.28;;;19.61;40.13
52777;BME280;38656;54.260;20.822;2023-05-03T07:55:46;101939.75;;;21.33;40.12
52777;BME280;38656;54.260;20.822;2023-05-03T07:58:12;101940.69;;;21.06;41.05
52777;BME280;38656;54.260;20.822;2023-05-03T08:00:39;101944.19;;;20.34;42.38
52777;BME280;38656;54.260;20.822;2023-05-03T08:03:05;101942.69;;;20.04;41.61
52777;BME280;38656;54.260;20.822;2023-05-03T08:05:32;101947.69;;;19.89;41.22
52777;BME280;38656;54.260;20.822;2023-05-03T08:08:01;101952.16;;;19.41;40.49
52777;BME280;38656;54.260;20.822;2023-05-03T08:10:28;101947.72;;;20.99;37.56
52777;BME280;38656;54.260;20.822;2023-05-03T08:12:55;101946.06;;;17.91;42.09
52777;BME280;38656;54.260;20.822;2023-05-03T08:15:21;101949.38;;;19.23;41.03
52777;BME280;38656;54.260;20.822;2023-05-03T08:17:47;101945.69;;;18.75;37.87
52777;BME280;38656;54.260;20.822;2023-05-03T08:20:14;101942.63;;;19.86;37.05
52777;BME280;38656;54.260;20.822;2023-05-03T08:22:41;101947.69;;;19.03;39.28
52777;BME280;38656;54.260;20.822;2023-05-03T08:25:10;101946.03;;;19.69;38.46
52777;BME280;38656;54.260;20.822;2023-05-03T08:27:37;101951.75;;;18.58;39.45
52777;BME280;38656;54.260;20.822;2023-05-03T08:30:05;101946.28;;;18.79;40.76
52777;BME280;38656;54.260;20.822;2023-05-03T08:32:32;101948.13;;;18.98;39.51
52777;BME280;38656;54.260;20.822;2023-05-03T08:34:59;101956.22;;;17.03;40.56
52777;BME280;38656;54.260;20.822;2023-05-03T08:37:25;101956.25;;;18.48;39.57
52777;BME280;38656;54.260;20.822;2023-05-03T08:39:51;101958.00;;;19.27;38.39
52777;BME280;38656;54.260;20.822;2023-05-03T08:42:18;101958.78;;;19.47;40.10
52777;BME280;38656;54.260;20.822;2023-05-03T08:44:46;101954.88;;;20.62;38.63
52777;BME280;38656;54.260;20.822;2023-05-03T08:47:16;101954.69;;;20.28;39.70
52777;BME280;38656;54.260;20.822;2023-05-03T08:49:43;101948.34;;;21.98;37.18
52777;BME280;38656;54.260;20.822;2023-05-03T08:52:10;101955.78;;;20.99;40.37
52777;BME280;38656;54.260;20.822;2023-05-03T08:54:37;101964.34;;;19.26;41.99
52777;BME280;38656;54.260;20.822;2023-05-03T08:57:06;101953.72;;;20.47;39.36
52777;BME280;38656;54.260;20.822;2023-05-03T08:59:49;101949.28;;;19.62;39.69
52777;BME280;38656;54.260;20.822;2023-05-03T09:02:16;101962.34;;;19.38;39.93
52777;BME280;38656;54.260;20.822;2023-05-03T09:04:43;101957.69;;;22.28;37.77
52777;BME280;38656;54.260;20.822;2023-05-03T09:07:10;101959.19;;;23.47;35.41
52777;BME280;38656;54.260;20.822;2023-05-03T09:09:36;101948.19;;;24.76;31.84
52777;BME280;38656;54.260;20.822;2023-05-03T09:12:03;101948.44;;;24.35;33.85
52777;BME280;38656;54.260;20.822;2023-05-03T09:14:30;101962.56;;;23.00;35.45
52777;BME280;38656;54.260;20.822;2023-05-03T09:17:14;101962.31;;;21.67;35.95
52777;BME280;38656;54.260;20.822;2023-05-03T09:19:52;101954.50;;;23.33;33.34
52777;BME280;38656;54.260;20.822;2023-05-03T09:22:18;101954.25;;;26.14;31.42
52777;BME280;38656;54.260;20.822;2023-05-03T09:24:55;101956.84;;;22.19;35.22
52777;BME280;38656;54.260;20.822;2023-05-03T09:27:23;101977.97;;;20.55;35.29
52777;BME280;38656;54.260;20.822;2023-05-03T09:29:51;101973.56;;;20.82;34.68
52777;BME280;38656;54.260;20.822;2023-05-03T09:32:18;101966.34;;;21.00;35.43
52777;BME280;38656;54.260;20.822;2023-05-03T09:34:44;101961.84;;;24.51;31.85
52777;BME280;38656;54.260;20.822;2023-05-03T09:37:11;101958.59;;;24.87;31.78
52777;BME280;38656;54.260;20.822;2023-05-03T09:39:42;101958.41;;;21.35;33.05
52777;BME280;38656;54.260;20.822;2023-05-03T09:42:13;101964.84;;;22.37;32.45
52777;BME280;38656;54.260;20.822;2023-05-03T09:44:49;101961.69;;;22.16;33.92
52777;BME280;38656;54.260;20.822;2023-05-03T09:47:20;101967.34;;;21.96;33.80
52777;BME280;38656;54.260;20.822;2023-05-03T09:49:50;101968.97;;;22.91;32.99
52777;BME280;38656;54.260;20.822;2023-05-03T09:52:16;101965.41;;;22.15;32.87
52777;BME280;38656;54.260;20.822;2023-05-03T09:54:43;101974.63;;;22.47;32.65
52777;BME280;38656;54.260;20.822;2023-05-03T09:57:09;101968.84;;;23.98;30.38
52777;BME280;38656;54.260;20.822;2023-05-03T09:59:37;101967.66;;;24.95;27.39
52777;BME280;38656;54.260;20.822;2023-05-03T10:02:06;101974.69;;;23.45;28.82
52777;BME280;38656;54.260;20.822;2023-05-03T10:04:38;101975.16;;;24.21;29.18
52777;BME280;38656;54.260;20.822;2023-05-03T10:07:13;101974.53;;;25.20;30.14
52777;BME280;38656;54.260;20.822;2023-05-03T10:09:43;101968.94;;;27.28;26.57
52777;BME280;38656;54.260;20.822;2023-05-03T10:12:10;101967.13;;;27.98;27.26
52777;BME280;38656;54.260;20.822;2023-05-03T10:14:40;101974.13;;;22.59;31.31
52777;BME280;38656;54.260;20.822;2023-05-03T10:19:54;101970.28;;;24.17;29.47
52777;BME280;38656;54.260;20.822;2023-05-03T10:22:21;101980.72;;;25.44;30.85
52777;BME280;38656;54.260;20.822;2023-05-03T10:32:51;101970.97;;;22.97;29.70
52777;BME280;38656;54.260;20.822;2023-05-03T10:35:17;101974.78;;;21.06;32.85
52777;BME280;38656;54.260;20.822;2023-05-03T10:37:46;101972.47;;;22.16;32.94
52777;BME280;38656;54.260;20.822;2023-05-03T10:40:14;101976.56;;;21.59;31.64
52777;BME280;38656;54.260;20.822;2023-05-03T10:42:59;101976.28;;;21.70;32.31
52777;BME280;38656;54.260;20.822;2023-05-03T10:45:26;101975.34;;;23.06;31.29
52777;BME280;38656;54.260;20.822;2023-05-03T10:50:41;101972.25;;;26.22;27.42
52777;BME280;38656;54.260;20.822;2023-05-03T10:53:07;101961.13;;;26.90;27.39
52777;BME280;38656;54.260;20.822;2023-05-03T10:56:04;101963.72;;;26.03;26.98
52777;BME280;38656;54.260;20.822;2023-05-03T11:01:05;101970.47;;;24.78;26.59
52777;BME280;38656;54.260;20.822;2023-05-03T11:06:32;101974.41;;;20.09;33.46
52777;BME280;38656;54.260;20.822;2023-05-03T11:09:00;101970.88;;;23.96;31.32
52777;BME280;38656;54.260;20.822;2023-05-03T11:11:26;101974.19;;;24.46;30.04
52777;BME280;38656;54.260;20.822;2023-05-03T11:13:53;101976.59;;;23.20;30.32
52777;BME280;38656;54.260;20.822;2023-05-03T11:16:20;101975.88;;;21.39;32.23
52777;BME280;38656;54.260;20.822;2023-05-03T11:18:46;101974.06;;;23.35;29.86
52777;BME280;38656;54.260;20.822;2023-05-03T11:21:14;101977.75;;;22.93;30.28
52777;BME280;38656;54.260;20.822;2023-05-03T11:23:42;101976.28;;;21.70;32.96
52777;BME280;38656;54.260;20.822;2023-05-03T11:26:08;101984.41;;;21.34;33.94
52777;BME280;38656;54.260;20.822;2023-05-03T11:28:38;101982.94;;;20.78;34.19
52777;BME280;38656;54.260;20.822;2023-05-03T11:31:04;101970.97;;;21.79;32.99
52777;BME280;38656;54.260;20.822;2023-05-03T11:33:34;101981.25;;;20.77;34.49
52777;BME280;38656;54.260;20.822;2023-05-03T11:36:01;101984.63;;;20.23;33.49
52777;BME280;38656;54.260;20.822;2023-05-03T11:38:32;101982.41;;;21.81;32.57
52777;BME280;38656;54.260;20.822;2023-05-03T11:40:59;101982.72;;;21.78;32.84
52777;BME280;38656;54.260;20.822;2023-05-03T11:43:28;101993.66;;;21.32;33.14
52777;BME280;38656;54.260;20.822;2023-05-03T11:45:57;101981.16;;;21.67;33.94
52777;BME280;38656;54.260;20.822;2023-05-03T11:48:24;101989.59;;;20.46;33.95
52777;BME280;38656;54.260;20.822;2023-05-03T11:50:53;101980.69;;;22.40;32.38
52777;BME280;38656;54.260;20.822;2023-05-03T11:53:22;101995.53;;;19.84;34.75
52777;BME280;38656;54.260;20.822;2023-05-03T11:55:52;101985.22;;;20.73;34.88
52777;BME280;38656;54.260;20.822;2023-05-03T11:58:22;101982.03;;;21.76;33.02
52777;BME280;38656;54.260;20.822;2023-05-03T12:00:52;101991.94;;;21.31;34.67
52777;BME280;38656;54.260;20.822;2023-05-03T12:03:24;101992.00;;;21.39;34.03
52777;BME280;38656;54.260;20.822;2023-05-03T12:05:51;101990.91;;;22.02;34.28
52777;BME280;38656;54.260;20.822;2023-05-03T12:08:21;101995.31;;;21.33;33.96
52777;BME280;38656;54.260;20.822;2023-05-03T12:10:50;101989.97;;;21.15;33.97
52777;BME280;38656;54.260;20.822;2023-05-03T12:13:33;101997.34;;;20.77;35.18
52777;BME280;38656;54.260;20.822;2023-05-03T12:16:03;101996.88;;;20.99;33.96
52777;BME280;38656;54.260;20.822;2023-05-03T12:18:58;102001.47;;;21.25;33.44
52777;BME280;38656;54.260;20.822;2023-05-03T12:21:47;102006.47;;;20.56;33.39
52777;BME280;38656;54.260;20.822;2023-05-03T12:24:13;101992.91;;;21.92;33.25
52777;BME280;38656;54.260;20.822;2023-05-03T12:26:47;101998.78;;;21.96;33.75
52777;BME280;38656;54.260;20.822;2023-05-03T12:29:13;101997.16;;;22.37;32.82
52777;BME280;38656;54.260;20.822;2023-05-03T12:31:40;101994.16;;;21.80;32.02
52777;BME280;38656;54.260;20.822;2023-05-03T12:34:07;101998.50;;;21.10;32.38
52777;BME280;38656;54.260;20.822;2023-05-03T12:36:33;101994.88;;;22.75;31.47
52777;BME280;38656;54.260;20.822;2023-05-03T12:39:00;101998.19;;;22.53;31.40
52777;BME280;38656;54.260;20.822;2023-05-03T12:41:28;101998.97;;;20.42;32.97
52777;BME280;38656;54.260;20.822;2023-05-03T12:43:59;102001.22;;;20.37;33.28
52777;BME280;38656;54.260;20.822;2023-05-03T12:46:27;101999.34;;;21.11;32.22
52777;BME280;38656;54.260;20.822;2023-05-03T12:48:53;101998.81;;;22.38;31.33
52777;BME280;38656;54.260;20.822;2023-05-03T12:51:20;101997.97;;;23.22;29.75
52777;BME280;38656;54.260;20.822;2023-05-03T12:53:46;101991.28;;;21.29;33.41
52777;BME280;38656;54.260;20.822;2023-05-03T12:56:14;101978.75;;;23.41;28.93
52777;BME280;38656;54.260;20.822;2023-05-03T12:58:40;101985.69;;;24.08;31.14
52777;BME280;38656;54.260;20.822;2023-05-03T13:01:07;101981.31;;;23.26;28.48
52777;BME280;38656;54.260;20.822;2023-05-03T13:03:34;101990.31;;;24.85;28.82
52777;BME280;38656;54.260;20.822;2023-05-03T13:06:00;101983.28;;;25.22;26.30
52777;BME280;38656;54.260;20.822;2023-05-03T13:08:29;101979.38;;;26.08;26.51
52777;BME280;38656;54.260;20.822;2023-05-03T13:10:56;101996.22;;;25.12;26.72
52777;BME280;38656;54.260;20.822;2023-05-03T13:13:22;101989.44;;;23.99;28.46
52777;BME280;38656;54.260;20.822;2023-05-03T13:15:49;101991.19;;;23.59;28.89